sensor_id;sensor_type;location;lat;lon;timestamp;pressure;altitude;pressure_sealevel;temperature;humidity
18678;BME280;9469;51.114;13.914;2022-12-17T00:04:47;99137.50;;;-3.59;100.00
18678;BME280;9469;51.114;13.914;2022-12-17T00:10:07;99144.72;;;-3.35;100.00
18678;BME280;9469;51.114;13.914;2022-12-17T00:15:25;99145.94;;;-3.51;100.00
18678;BME280;9469;51.114;13.914;2022-12-17T00:20:50;99144.72;;;-3.35;100.00
18678;BME280;9469;51.114;13.914;2022-12-17T00:26:13;99144.13;;;-3.37;100.00
18678;BME280;9469;51.114;13.914;2022-12-17T00:31:30;99148.31;;;-3.23;100.00
18678;BME280;9469;51.114;13.914;2022-12-17T00:36:48;99159.53;;;-3.49;100.00
18678;BME280;9469;51.114;13.914;2022-12-17T00:42:07;99159.91;;;-3.32;100.00
18678;BME280;9469;51.114;13.914;2022-12-17T00:47:25;99165.34;;;-3.47;100.00
18678;BME280;9469;51.114;13.914;2022-12-17T00:52:42;99175.16;;;-3.29;100.00
18678;BME280;9469;51.114;13.914;2022-12-17T00:58:02;99187.72;;;-3.52;100.00
18678;BME280;9469;51.114;13.914;2022-12-17T01:03:20;99177.53;;;-3.41;100.00
18678;BME280;9469;51.114;13.914;2022-12-17T01:08:40;99192.53;;;-3.49;100.00
18678;BME280;9469;51.114;13.914;2022-12-17T01:14:00;99198.38;;;-3.15;100.00
18678;BME280;9469;51.114;13.914;2022-12-17T01:19:18;99204.34;;;-3.47;100.00
18678;BME280;9469;51.114;13.914;2022-12-17T01:24:35;99205.53;;;-3.56;100.00
18678;BME280;9469;51.114;13.914;2022-12-17T01:29:55;99221.16;;;-3.43;100.00
18678;BME280;9469;51.114;13.914;2022-12-17T01:35:13;99225.38;;;-3.16;100.00
18678;BME280;9469;51.114;13.914;2022-12-17T01:40:32;99229.75;;;-3.55;100.00
18678;BME280;9469;51.114;13.914;2022-12-17T01:45:52;99223.97;;;-3.31;100.00
18678;BME280;9469;51.114;13.914;2022-12-17T01:51:09;99227.31;;;-3.50;100.00
18678;BME280;9469;51.114;13.914;2022-12-17T01:56:27;99219.16;;;-3.41;100.00
18678;BME280;9469;51.114;13.914;2022-12-17T02:01:47;99234.16;;;-3.36;100.00
18678;BME280;9469;51.114;13.914;2022-12-17T02:07:17;99233.94;;;-3.54;100.00
18678;BME280;9469;51.114;13.914;2022-12-17T02:12:41;99236.13;;;-3.65;100.00
18678;BME280;9469;51.114;13.914;2022-12-17T02:18:06;99235.91;;;-3.63;100.00
18678;BME280;9469;51.114;13.914;2022-12-17T02:23:34;99243.91;;;-3.65;100.00
18678;BME280;9469;51.114;13.914;2022-12-17T02:28:56;99243.50;;;-3.68;100.00
18678;BME280;9469;51.114;13.914;2022-12-17T02:34:15;99242.41;;;-3.26;100.00
18678;BME280;9469;51.114;13.914;2022-12-17T02:39:33;99246.19;;;-3.09;100.00
18678;BME280;9469;51.114;13.914;2022-12-17T02:44:54;99256.75;;;-3.50;100.00
18678;BME280;9469;51.114;13.914;2022-12-17T02:50:13;99264.56;;;-3.43;100.00
18678;BME280;9469;51.114;13.914;2022-12-17T02:55:31;99263.56;;;-3.42;100.00
18678;BME280;9469;51.114;13.914;2022-12-17T03:00:52;99271.53;;;-3.50;100.00
18678;BME280;9469;51.114;13.914;2022-12-17T03:06:11;99265.53;;;-3.57;100.00
18678;BME280;9469;51.114;13.914;2022-12-17T03:11:29;99269.38;;;-3.47;100.00
18678;BME280;9469;51.114;13.914;2022-12-17T03:16:49;99277.31;;;-3.62;100.00
18678;BME280;9469;51.114;13.914;2022-12-17T03:22:09;99278.31;;;-3.63;100.00
18678;BME280;9469;51.114;13.914;2022-12-17T03:27:27;99284.16;;;-3.47;100.00
18678;BME280;9469;51.114;13.914;2022-12-17T03:32:47;99278.72;;;-3.59;100.00
18678;BME280;9469;51.114;13.914;2022-12-17T03:38:06;99284.19;;;-3.34;100.00
18678;BME280;9469;51.114;13.914;2022-12-17T03:43:23;99292.56;;;-3.45;100.00
18678;BME280;9469;51.114;13.914;2022-12-17T03:48:43;99297.91;;;-3.67;100.00
18678;BME280;9469;51.114;13.914;2022-12-17T03:54:00;99286.56;;;-3.46;100.00
18678;BME280;9469;51.114;13.914;2022-12-17T03:59:18;99295.38;;;-3.40;100.00
18678;BME280;9469;51.114;13.914;2022-12-17T04:04:38;99301.41;;;-3.40;100.00
18678;BME280;9469;51.114;13.914;2022-12-17T04:09:55;99302.25;;;-3.20;100.00
18678;BME280;9469;51.114;13.914;2022-12-17T04:15:12;99306.88;;;-3.02;100.00
18678;BME280;9469;51.114;13.914;2022-12-17T04:20:32;99311.44;;;-3.30;100.00
18678;BME280;9469;51.114;13.914;2022-12-17T04:25:50;99330.25;;;-3.28;100.00
18678;BME280;9469;51.114;13.914;2022-12-17T04:31:07;99345.47;;;-3.19;100.00
18678;BME280;9469;51.114;13.914;2022-12-17T04:36:27;99347.06;;;-3.31;100.00
18678;BME280;9469;51.114;13.914;2022-12-17T04:41:45;99343.28;;;-3.22;100.00
18678;BME280;9469;51.114;13.914;2022-12-17T04:47:02;99348.63;;;-3.30;100.00
18678;BME280;9469;51.114;13.914;2022-12-17T04:52:22;99354.59;;;-3.42;100.00
18678;BME280;9469;51.114;13.914;2022-12-17T04:57:39;99356.28;;;-3.28;100.00
18678;BME280;9469;51.114;13.914;2022-12-17T05:03:03;99352.75;;;-2.95;100.00
18678;BME280;9469;51.114;13.914;2022-12-17T05:08:23;99354.91;;;-3.05;100.00
18678;BME280;9469;51.114;13.914;2022-12-17T05:13:42;99368.75;;;-2.91;100.00
18678;BME280;9469;51.114;13.914;2022-12-17T05:18:59;99370.56;;;-2.92;100.00
18678;BME280;9469;51.114;13.914;2022-12-17T05:24:19;99374.78;;;-2.91;100.00
18678;BME280;9469;51.114;13.914;2022-12-17T05:29:37;99389.88;;;-3.27;100.00
18678;BME280;9469;51.114;13.914;2022-12-17T05:34:54;99398.16;;;-3.10;100.00
18678;BME280;9469;51.114;13.914;2022-12-17T05:40:15;99411.16;;;-3.17;100.00
18678;BME280;9469;51.114;13.914;2022-12-17T05:45:33;99419.75;;;-3.16;100.00
18678;BME280;9469;51.114;13.914;2022-12-17T05:50:50;99426.44;;;-2.94;100.00
18678;BME280;9469;51.114;13.914;2022-12-17T05:56:10;99425.53;;;-3.14;100.00
18678;BME280;9469;51.114;13.914;2022-12-17T06:01:27;99427.41;;;-3.08;100.00
18678;BME280;9469;51.114;13.914;2022-12-17T06:06:48;99433.41;;;-3.08;100.00
18678;BME280;9469;51.114;13.914;2022-12-17T06:12:08;99432.59;;;-3.08;100.00
18678;BME280;9469;51.114;13.914;2022-12-17T06:17:25;99432.16;;;-3.12;100.00
18678;BME280;9469;51.114;13.914;2022-12-17T06:22:42;99434.00;;;-3.06;100.00
18678;BME280;9469;51.114;13.914;2022-12-17T06:28:02;99435.03;;;-2.94;100.00
18678;BME280;9469;51.114;13.914;2022-12-17T06:33:20;99442.50;;;-2.71;100.00
18678;BME280;9469;51.114;13.914;2022-12-17T06:38:38;99453.91;;;-2.85;100.00
18678;BME280;9469;51.114;13.914;2022-12-17T06:43:58;99457.84;;;-3.02;100.00
18678;BME280;9469;51.114;13.914;2022-12-17T06:49:16;99470.72;;;-2.87;100.00
18678;BME280;9469;51.114;13.914;2022-12-17T06:54:33;99492.31;;;-2.87;100.00
18678;BME280;9469;51.114;13.914;2022-12-17T06:59:55;99491.25;;;-2.45;100.00
18678;BME280;9469;51.114;13.914;2022-12-17T07:05:15;99498.63;;;-2.62;100.00
18678;BME280;9469;51.114;13.914;2022-12-17T07:10:33;99494.44;;;-2.63;100.00
18678;BME280;9469;51.114;13.914;2022-12-17T07:15:53;99508.59;;;-2.78;100.00
18678;BME280;9469;51.114;13.914;2022-12-17T07:21:11;99518.28;;;-2.53;100.00
18678;BME280;9469;51.114;13.914;2022-12-17T07:26:28;99522.75;;;-2.94;100.00
18678;BME280;9469;51.114;13.914;2022-12-17T07:31:48;99528.41;;;-2.84;100.00
18678;BME280;9469;51.114;13.914;2022-12-17T07:37:05;99526.25;;;-2.74;100.00
18678;BME280;9469;51.114;13.914;2022-12-17T07:42:23;99535.56;;;-2.45;100.00
18678;BME280;9469;51.114;13.914;2022-12-17T07:47:50;99542.66;;;-2.73;100.00
18678;BME280;9469;51.114;13.914;2022-12-17T07:53:08;99549.50;;;-2.66;100.00
18678;BME280;9469;51.114;13.914;2022-12-17T07:58:26;99562.16;;;-2.63;100.00
18678;BME280;9469;51.114;13.914;2022-12-17T08:03:46;99563.75;;;-2.62;100.00
18678;BME280;9469;51.114;13.914;2022-12-17T08:09:04;99566.81;;;-2.52;100.00
18678;BME280;9469;51.114;13.914;2022-12-17T08:14:21;99567.66;;;-2.32;100.00
18678;BME280;9469;51.114;13.914;2022-12-17T08:19:47;99585.00;;;-2.58;100.00
18678;BME280;9469;51.114;13.914;2022-12-17T08:25:05;99587.41;;;-2.57;100.00
18678;BME280;9469;51.114;13.914;2022-12-17T08:30:22;99590.63;;;-2.55;100.00
18678;BME280;9469;51.114;13.914;2022-12-17T08:35:42;99599.03;;;-2.53;100.00
18678;BME280;9469;51.114;13.914;2022-12-17T08:40:59;99597.84;;;-2.50;100.00
18678;BME280;9469;51.114;13.914;2022-12-17T08:46:17;99615.00;;;-2.69;100.00
18678;BME280;9469;51.114;13.914;2022-12-17T08:51:38;99609.28;;;-2.58;100.00
18678;BME280;9469;51.114;13.914;2022-12-17T08:56:55;99622.38;;;-2.38;100.00
18678;BME280;9469;51.114;13.914;2022-12-17T09:02:13;99624.41;;;-2.27;100.00
18678;BME280;9469;51.114;13.914;2022-12-17T09:07:33;99626.84;;;-2.12;100.00
18678;BME280;9469;51.114;13.914;2022-12-17T09:12:50;99634.38;;;-2.37;100.00
18678;BME280;9469;51.114;13.914;2022-12-17T09:18:08;99629.69;;;-2.55;100.00
18678;BME280;9469;51.114;13.914;2022-12-17T09:23:27;99633.59;;;-2.38;100.00
18678;BME280;9469;51.114;13.914;2022-12-17T09:28:45;99641.28;;;-2.17;100.00
18678;BME280;9469;51.114;13.914;2022-12-17T09:34:02;99642.69;;;-2.21;100.00
18678;BME280;9469;51.114;13.914;2022-12-17T09:39:22;99638.94;;;-1.98;100.00
18678;BME280;9469;51.114;13.914;2022-12-17T09:44:43;99651.34;;;-2.07;100.00
18678;BME280;9469;51.114;13.914;2022-12-17T09:50:07;99650.19;;;-1.91;100.00
18678;BME280;9469;51.114;13.914;2022-12-17T09:55:35;99664.88;;;-1.77;100.00
18678;BME280;9469;51.114;13.914;2022-12-17T10:00:56;99654.81;;;-1.93;100.00
18678;BME280;9469;51.114;13.914;2022-12-17T10:06:18;99654.94;;;-2.08;100.00
18678;BME280;9469;51.114;13.914;2022-12-17T10:11:41;99666.44;;;-1.89;100.00
18678;BME280;9469;51.114;13.914;2022-12-17T10:16:58;99668.63;;;-2.06;100.00
18678;BME280;9469;51.114;13.914;2022-12-17T10:22:17;99675.59;;;-2.13;100.00
18678;BME280;9469;51.114;13.914;2022-12-17T10:27:42;99684.47;;;-1.94;100.00
18678;BME280;9469;51.114;13.914;2022-12-17T10:33:04;99682.31;;;-1.78;100.00
18678;BME280;9469;51.114;13.914;2022-12-17T10:38:23;99689.75;;;-1.81;100.00
18678;BME280;9469;51.114;13.914;2022-12-17T10:43:44;99692.50;;;-1.89;100.00
18678;BME280;9469;51.114;13.914;2022-12-17T10:49:04;99690.59;;;-1.55;100.00
18678;BME280;9469;51.114;13.914;2022-12-17T10:54:28;99695.41;;;-1.58;100.00
18678;BME280;9469;51.114;13.914;2022-12-17T11:00:17;99689.19;;;-1.57;100.00
18678;BME280;9469;51.114;13.914;2022-12-17T11:05:37;99699.06;;;-1.46;100.00
18678;BME280;9469;51.114;13.914;2022-12-17T11:11:02;99702.63;;;-1.67;100.00
18678;BME280;9469;51.114;13.914;2022-12-17T11:16:26;99708.44;;;-1.58;100.00
18678;BME280;9469;51.114;13.914;2022-12-17T11:21:48;99710.84;;;-1.70;100.00
18678;BME280;9469;51.114;13.914;2022-12-17T11:27:07;99717.91;;;-1.57;100.00
18678;BME280;9469;51.114;13.914;2022-12-17T11:32:48;99708.53;;;-1.19;100.00
18678;BME280;9469;51.114;13.914;2022-12-17T11:38:19;99717.91;;;-1.44;100.00
18678;BME280;9469;51.114;13.914;2022-12-17T11:43:44;99718.34;;;-1.40;100.00
18678;BME280;9469;51.114;13.914;2022-12-17T11:49:13;99719.72;;;-1.45;100.00
18678;BME280;9469;51.114;13.914;2022-12-17T11:54:41;99723.38;;;-1.26;100.00
18678;BME280;9469;51.114;13.914;2022-12-17T12:00:07;99725.97;;;-1.13;100.00
18678;BME280;9469;51.114;13.914;2022-12-17T12:05:39;99737.44;;;-1.20;100.00
18678;BME280;9469;51.114;13.914;2022-12-17T12:11:04;99734.25;;;-1.16;100.00
18678;BME280;9469;51.114;13.914;2022-12-17T12:16:34;99745.09;;;-0.80;100.00
18678;BME280;9469;51.114;13.914;2022-12-17T12:22:05;99738.81;;;-1.24;100.00
18678;BME280;9469;51.114;13.914;2022-12-17T12:27:37;99745.28;;;-1.20;100.00
18678;BME280;9469;51.114;13.914;2022-12-17T12:33:14;99750.72;;;-0.83;100.00
18678;BME280;9469;51.114;13.914;2022-12-17T12:38:39;99753.13;;;-1.01;100.00
18678;BME280;9469;51.114;13.914;2022-12-17T12:44:01;99762.75;;;-1.01;100.00
18678;BME280;9469;51.114;13.914;2022-12-17T12:49:24;99764.38;;;-0.81;100.00
18678;BME280;9469;51.114;13.914;2022-12-17T12:54:52;99765.59;;;-0.77;100.00
18678;BME280;9469;51.114;13.914;2022-12-17T13:00:37;99772.81;;;-0.92;100.00
18678;BME280;9469;51.114;13.914;2022-12-17T13:05:56;99773.41;;;-0.90;100.00
18678;BME280;9469;51.114;13.914;2022-12-17T13:11:24;99782.47;;;-0.59;100.00
18678;BME280;9469;51.114;13.914;2022-12-17T13:16:37;99786.03;;;-1.26;100.00
18678;BME280;9469;51.114;13.914;2022-12-17T13:21:45;99793.53;;;-0.70;100.00
18678;BME280;9469;51.114;13.914;2022-12-17T13:26:55;99780.44;;;-1.16;100.00
18678;BME280;9469;51.114;13.914;2022-12-17T13:32:08;99799.31;;;-1.14;100.00
18678;BME280;9469;51.114;13.914;2022-12-17T13:37:28;99803.56;;;-0.81;100.00
18678;BME280;9469;51.114;13.914;2022-12-17T13:42:38;99797.75;;;-0.83;100.00
18678;BME280;9469;51.114;13.914;2022-12-17T13:47:51;99806.19;;;-0.81;100.00
18678;BME280;9469;51.114;13.914;2022-12-17T13:53:07;99822.59;;;-1.19;100.00
18678;BME280;9469;51.114;13.914;2022-12-17T13:58:24;99823.03;;;-1.03;100.00
18678;BME280;9469;51.114;13.914;2022-12-17T14:03:31;99822.06;;;-1.56;100.00
18678;BME280;9469;51.114;13.914;2022-12-17T14:08:56;99837.91;;;-1.64;100.00
18678;BME280;9469;51.114;13.914;2022-12-17T14:14:08;99842.47;;;-1.18;100.00
18678;BME280;9469;51.114;13.914;2022-12-17T14:19:15;99854.41;;;-1.50;100.00
18678;BME280;9469;51.114;13.914;2022-12-17T14:24:22;99859.84;;;-1.52;100.00
18678;BME280;9469;51.114;13.914;2022-12-17T14:29:44;99867.72;;;-1.79;100.00
18678;BME280;9469;51.114;13.914;2022-12-17T14:34:50;99878.41;;;-1.68;100.00
18678;BME280;9469;51.114;13.914;2022-12-17T14:40:04;99881.59;;;-1.72;100.00
18678;BME280;9469;51.114;13.914;2022-12-17T14:45:23;99887.00;;;-1.74;100.00
18678;BME280;9469;51.114;13.914;2022-12-17T14:50:31;99894.47;;;-1.64;100.00
18678;BME280;9469;51.114;13.914;2022-12-17T14:55:51;99897.63;;;-1.41;100.00
18678;BME280;9469;51.114;13.914;2022-12-17T15:01:06;99899.00;;;-1.45;100.00
18678;BME280;9469;51.114;13.914;2022-12-17T15:06:15;99909.72;;;-1.68;100.00
18678;BME280;9469;51.114;13.914;2022-12-17T15:11:21;99912.72;;;-1.71;100.00
18678;BME280;9469;51.114;13.914;2022-12-17T15:16:29;99915.88;;;-1.75;100.00
18678;BME280;9469;51.114;13.914;2022-12-17T15:21:35;99925.09;;;-1.79;100.00
18678;BME280;9469;51.114;13.914;2022-12-17T15:26:40;99931.13;;;-2.06;100.00
18678;BME280;9469;51.114;13.914;2022-12-17T15:31:48;99923.88;;;-1.83;100.00
18678;BME280;9469;51.114;13.914;2022-12-17T15:36:53;99929.84;;;-1.89;100.00
18678;BME280;9469;51.114;13.914;2022-12-17T15:41:59;99938.28;;;-1.53;100.00
18678;BME280;9469;51.114;13.914;2022-12-17T15:47:19;99939.91;;;-1.86;100.00
18678;BME280;9469;51.114;13.914;2022-12-17T15:52:23;99936.38;;;-1.72;100.00
18678;BME280;9469;51.114;13.914;2022-12-17T15:57:29;99940.19;;;-1.75;100.00
18678;BME280;9469;51.114;13.914;2022-12-17T16:02:36;99943.72;;;-1.82;100.00
18678;BME280;9469;51.114;13.914;2022-12-17T16:07:42;99942.25;;;-1.91;100.00
18678;BME280;9469;51.114;13.914;2022-12-17T16:12:47;99951.44;;;-1.74;100.00
18678;BME280;9469;51.114;13.914;2022-12-17T16:17:54;99963.16;;;-1.85;100.00
18678;BME280;9469;51.114;13.914;2022-12-17T16:23:00;99975.25;;;-2.05;100.00
18678;BME280;9469;51.114;13.914;2022-12-17T16:28:07;99973.09;;;-2.01;100.00
18678;BME280;9469;51.114;13.914;2022-12-17T16:33:15;99973.19;;;-1.88;100.00
18678;BME280;9469;51.114;13.914;2022-12-17T16:38:20;99973.84;;;-1.52;100.00
18678;BME280;9469;51.114;13.914;2022-12-17T16:43:27;99976.69;;;-2.02;100.00
18678;BME280;9469;51.114;13.914;2022-12-17T16:48:37;99976.59;;;-1.60;100.00
18678;BME280;9469;51.114;13.914;2022-12-17T16:53:42;99990.56;;;-1.74;100.00
18678;BME280;9469;51.114;13.914;2022-12-17T16:58:48;99998.28;;;-1.60;100.00
18678;BME280;9469;51.114;13.914;2022-12-17T17:03:57;99999.06;;;-2.08;100.00
18678;BME280;9469;51.114;13.914;2022-12-17T17:09:02;100000.28;;;-1.62;100.00
18678;BME280;9469;51.114;13.914;2022-12-17T17:14:07;100004.94;;;-2.06;100.00
18678;BME280;9469;51.114;13.914;2022-12-17T17:19:16;100008.47;;;-1.92;100.00
18678;BME280;9469;51.114;13.914;2022-12-17T17:24:25;100011.59;;;-1.48;100.00
18678;BME280;9469;51.114;13.914;2022-12-17T17:29:30;100026.16;;;-1.88;100.00
18678;BME280;9469;51.114;13.914;2022-12-17T17:34:37;100021.63;;;-1.79;100.00
18678;BME280;9469;51.114;13.914;2022-12-17T17:39:42;100015.88;;;-1.68;100.00
18678;BME280;9469;51.114;13.914;2022-12-17T17:44:47;100020.44;;;-1.98;100.00
18678;BME280;9469;51.114;13.914;2022-12-17T17:49:55;100027.69;;;-1.72;100.00
18678;BME280;9469;51.114;13.914;2022-12-17T17:55:00;100034.16;;;-2.32;100.00
18678;BME280;9469;51.114;13.914;2022-12-17T18:00:15;100030.78;;;-2.47;100.00
18678;BME280;9469;51.114;13.914;2022-12-17T18:05:23;100037.06;;;-2.41;100.00
18678;BME280;9469;51.114;13.914;2022-12-17T18:10:28;100033.97;;;-2.30;100.00
18678;BME280;9469;51.114;13.914;2022-12-17T18:15:35;100031.00;;;-2.06;100.00
18678;BME280;9469;51.114;13.914;2022-12-17T18:20:42;100048.97;;;-2.32;100.00
18678;BME280;9469;51.114;13.914;2022-12-17T18:25:47;100053.53;;;-2.20;100.00
18678;BME280;9469;51.114;13.914;2022-12-17T18:30:52;100052.16;;;-2.15;100.00
18678;BME280;9469;51.114;13.914;2022-12-17T18:36:00;100051.72;;;-2.19;100.00
18678;BME280;9469;51.114;13.914;2022-12-17T18:41:07;100078.31;;;-2.45;100.00
18678;BME280;9469;51.114;13.914;2022-12-17T18:46:33;100074.44;;;-2.49;100.00
18678;BME280;9469;51.114;13.914;2022-12-17T18:51:43;100081.88;;;-2.67;100.00
18678;BME280;9469;51.114;13.914;2022-12-17T18:56:49;100082.66;;;-2.66;100.00
18678;BME280;9469;51.114;13.914;2022-12-17T19:02:09;100091.28;;;-2.66;100.00
18678;BME280;9469;51.114;13.914;2022-12-17T19:07:17;100100.53;;;-2.93;100.00
18678;BME280;9469;51.114;13.914;2022-12-17T19:12:23;100105.09;;;-2.80;100.00
18678;BME280;9469;51.114;13.914;2022-12-17T19:17:28;100113.47;;;-2.70;100.00
18678;BME280;9469;51.114;13.914;2022-12-17T19:22:35;100110.41;;;-2.59;100.00
18678;BME280;9469;51.114;13.914;2022-12-17T19:27:41;100109.47;;;-2.37;100.00
18678;BME280;9469;51.114;13.914;2022-12-17T19:32:45;100121.00;;;-2.75;100.00
18678;BME280;9469;51.114;13.914;2022-12-17T19:37:53;100120.28;;;-2.98;100.00
18678;BME280;9469;51.114;13.914;2022-12-17T19:42:58;100120.66;;;-3.01;100.00
18678;BME280;9469;51.114;13.914;2022-12-17T19:48:03;100132.13;;;-3.10;100.00
18678;BME280;9469;51.114;13.914;2022-12-17T19:53:22;100131.91;;;-3.23;100.00
18678;BME280;9469;51.114;13.914;2022-12-17T19:58:29;100126.16;;;-3.33;100.00
18678;BME280;9469;51.114;13.914;2022-12-17T20:03:38;100135.16;;;-3.21;100.00
18678;BME280;9469;51.114;13.914;2022-12-17T20:08:47;100133.53;;;-3.22;100.00
18678;BME280;9469;51.114;13.914;2022-12-17T20:13:52;100142.94;;;-3.58;100.00
18678;BME280;9469;51.114;13.914;2022-12-17T20:18:58;100138.97;;;-3.92;100.00
18678;BME280;9469;51.114;13.914;2022-12-17T20:24:06;100149.50;;;-3.63;100.00
18678;BME280;9469;51.114;13.914;2022-12-17T20:29:11;100149.94;;;-3.82;100.00
18678;BME280;9469;51.114;13.914;2022-12-17T20:34:22;100158.22;;;-4.09;100.00
18678;BME280;9469;51.114;13.914;2022-12-17T20:39:31;100158.09;;;-3.85;100.00
18678;BME280;9469;51.114;13.914;2022-12-17T20:44:36;100169.25;;;-4.07;100.00
18678;BME280;9469;51.114;13.914;2022-12-17T20:49:41;100170.06;;;-4.37;100.00
18678;BME280;9469;51.114;13.914;2022-12-17T20:54:49;100170.06;;;-4.06;100.00
18678;BME280;9469;51.114;13.914;2022-12-17T20:59:54;100181.59;;;-4.09;100.00
18678;BME280;9469;51.114;13.914;2022-12-17T21:05:02;100186.34;;;-4.12;100.00
18678;BME280;9469;51.114;13.914;2022-12-17T21:10:11;100177.28;;;-4.16;100.00
18678;BME280;9469;51.114;13.914;2022-12-17T21:15:16;100186.28;;;-4.35;100.00
18678;BME280;9469;51.114;13.914;2022-12-17T21:20:21;100189.97;;;-4.76;100.00
18678;BME280;9469;51.114;13.914;2022-12-17T21:25:29;100196.41;;;-4.56;100.00
18678;BME280;9469;51.114;13.914;2022-12-17T21:30:35;100201.50;;;-4.71;100.00
18678;BME280;9469;51.114;13.914;2022-12-17T21:35:40;100207.50;;;-4.78;100.00
18678;BME280;9469;51.114;13.914;2022-12-17T21:40:48;100210.91;;;-4.78;100.00
18678;BME280;9469;51.114;13.914;2022-12-17T21:45:55;100220.97;;;-4.67;100.00
18678;BME280;9469;51.114;13.914;2022-12-17T21:51:02;100211.44;;;-4.36;100.00
18678;BME280;9469;51.114;13.914;2022-12-17T21:56:14;100221.47;;;-4.16;100.00
18678;BME280;9469;51.114;13.914;2022-12-17T22:01:23;100224.06;;;-4.16;100.00
18678;BME280;9469;51.114;13.914;2022-12-17T22:06:33;100220.66;;;-4.25;100.00
18678;BME280;9469;51.114;13.914;2022-12-17T22:12:02;100222.19;;;-4.00;100.00
18678;BME280;9469;51.114;13.914;2022-12-17T22:17:19;100224.97;;;-4.01;100.00
18678;BME280;9469;51.114;13.914;2022-12-17T22:22:24;100240.56;;;-4.01;100.00
18678;BME280;9469;51.114;13.914;2022-12-17T22:27:32;100242.84;;;-3.45;100.00
18678;BME280;9469;51.114;13.914;2022-12-17T22:32:37;100251.41;;;-3.36;100.00
18678;BME280;9469;51.114;13.914;2022-12-17T22:37:55;100249.94;;;-3.62;100.00
18678;BME280;9469;51.114;13.914;2022-12-17T22:43:22;100256.97;;;-3.39;100.00
18678;BME280;9469;51.114;13.914;2022-12-17T22:48:54;100260.84;;;-3.66;100.00
18678;BME280;9469;51.114;13.914;2022-12-17T22:54:00;100254.25;;;-3.77;100.00
18678;BME280;9469;51.114;13.914;2022-12-17T22:59:14;100251.25;;;-3.66;100.00
18678;BME280;9469;51.114;13.914;2022-12-17T23:04:19;100254.56;;;-3.80;100.00
18678;BME280;9469;51.114;13.914;2022-12-17T23:09:26;100270.41;;;-3.89;100.00
18678;BME280;9469;51.114;13.914;2022-12-17T23:14:34;100268.31;;;-3.94;100.00
18678;BME280;9469;51.114;13.914;2022-12-17T23:19:39;100270.84;;;-4.16;100.00
18678;BME280;9469;51.114;13.914;2022-12-17T23:24:51;100260.94;;;-4.21;100.00
18678;BME280;9469;51.114;13.914;2022-12-17T23:29:59;100265.31;;;-4.21;100.00
18678;BME280;9469;51.114;13.914;2022-12-17T23:35:05;100282.00;;;-4.08;100.00
18678;BME280;9469;51.114;13.914;2022-12-17T23:40:11;100288.16;;;-4.09;100.00
18678;BME280;9469;51.114;13.914;2022-12-17T23:45:19;100282.31;;;-4.11;100.00
18678;BME280;9469;51.114;13.914;2022-12-17T23:50:24;100281.06;;;-4.15;100.00
18678;BME280;9469;51.114;13.914;2022-12-17T23:55:29;100276.03;;;-4.24;100.00
